Time;durP1;ratioP1;P1;durP2;ratioP2;P2;SDS_P1;SDS_P2;PMS_P1;PMS_P2;Temp;Humidity;BMP_temperature;BMP_pressure;BME280_temperature;BME280_humidity;BME280_pressure;Samples;Min_cycle;Max_cycle;Signal;HPM_P1;HPM_P2
2022/04/25 00:00:24;;;;;;;8.60;6.60;;;;;;;10.97;59.88;98927.34;108995;1280;22476;-60
2022/04/25 00:02:53;;;;;;;6.90;6.20;;;;;;;10.96;59.80;98925.28;108909;1280;22402;-61
2022/04/25 00:05:21;;;;;;;7.30;6.40;;;;;;;10.96;59.75;98918.58;108973;1280;22246;-61
2022/04/25 00:07:49;;;;;;;10.40;7.10;;;;;;;10.96;59.89;98917.70;108965;1279;22415;-60
2022/04/25 00:10:24;;;;;;;8.20;7.30;;;;;;;10.96;59.64;98915.14;109006;1279;22448;-61
2022/04/25 00:12:56;;;;;;;9.20;6.60;;;;;;;10.97;59.63;98917.05;108879;1281;22421;-61
2022/04/25 00:15:27;;;;;;;7.80;6.70;;;;;;;10.96;59.94;98919.50;108932;1280;22418;-61
2022/04/25 00:17:55;;;;;;;10.10;7.30;;;;;;;10.95;59.98;98914.57;108895;1281;22415;-60
2022/04/25 00:20:24;;;;;;;9.00;7.70;;;;;;;10.93;60.07;98908.79;108834;1280;23609;-61
2022/04/25 00:23:04;;;;;;;9.30;7.40;;;;;;;10.93;59.79;98909.45;108798;1282;23369;-61
2022/04/25 00:25:36;;;;;;;8.30;7.20;;;;;;;10.92;59.87;98912.38;108191;1280;24285;-63
2022/04/25 00:28:05;;;;;;;9.40;8.20;;;;;;;10.91;59.98;98918.60;104731;1281;23952;-63
2022/04/25 00:30:34;;;;;;;8.60;7.70;;;;;;;10.90;59.85;98919.52;104751;1281;25381;-63
2022/04/25 00:33:05;;;;;;;8.00;6.80;;;;;;;10.88;59.91;98918.42;104742;1280;24122;-62
2022/04/25 00:35:34;;;;;;;8.90;7.40;;;;;;;10.85;59.93;98918.82;104695;1280;24249;-63
2022/04/25 00:38:03;;;;;;;8.80;7.20;;;;;;;10.83;60.15;98916.80;109072;1279;23361;-64
2022/04/25 00:40:35;;;;;;;8.50;7.30;;;;;;;10.80;60.22;98916.70;108959;1280;22424;-64
2022/04/25 00:43:05;;;;;;;8.90;7.20;;;;;;;10.76;60.41;98912.77;108930;1280;22455;-64
2022/04/25 00:45:33;;;;;;;7.70;6.80;;;;;;;10.74;60.23;98911.09;109022;1280;22569;-64
2022/04/25 00:48:02;;;;;;;9.10;7.50;;;;;;;10.73;60.18;98908.30;108895;1280;22437;-64
2022/04/25 00:50:31;;;;;;;8.10;7.10;;;;;;;10.73;60.20;98902.59;108866;1281;22525;-64
2022/04/25 00:53:00;;;;;;;9.60;7.40;;;;;;;10.72;60.35;98900.02;108945;1279;22399;-64
2022/04/25 00:55:28;;;;;;;8.90;7.00;;;;;;;10.72;60.49;98897.19;108321;1281;22709;-60
2022/04/25 00:57:59;;;;;;;7.60;6.80;;;;;;;10.71;60.41;98892.01;108898;1281;23284;-60
2022/04/25 01:00:47;;;;;;;;;;;;;;;10.70;60.70;98885.64;108882;1280;22492;-61
2022/04/25 01:03:15;;;;;;;7.00;6.10;;;;;;;10.68;60.74;98884.88;108966;1280;22550;-60
2022/04/25 01:05:44;;;;;;;7.50;6.70;;;;;;;10.65;60.70;98881.25;108964;1280;23153;-60
2022/04/25 01:08:13;;;;;;;8.60;6.80;;;;;;;10.63;60.77;98880.05;108958;1279;22521;-61
2022/04/25 01:10:43;;;;;;;8.70;6.90;;;;;;;10.62;60.89;98877.16;108935;1279;23253;-61
2022/04/25 01:13:12;;;;;;;8.50;6.70;;;;;;;10.62;60.79;98877.27;108778;1281;22692;-61
2022/04/25 01:15:41;;;;;;;7.50;6.80;;;;;;;10.61;60.80;98869.96;108936;1280;22505;-60
2022/04/25 01:18:09;;;;;;;8.40;7.40;;;;;;;10.62;60.64;98870.46;108951;1280;22487;-61
2022/04/25 01:20:38;;;;;;;9.30;6.80;;;;;;;10.62;60.78;98869.92;108937;1280;22429;-60
2022/04/25 01:28:53;;;;;;;9.10;7.00;;;;;;;10.60;60.74;98858.36;108796;1282;22527;-60
2022/04/25 01:31:21;;;;;;;7.30;6.50;;;;;;;10.61;60.62;98856.73;108975;1280;22472;-60
2022/04/25 01:33:50;;;;;;;9.00;7.50;;;;;;;10.62;60.67;98852.48;108908;1281;22861;-60
2022/04/25 01:36:22;;;;;;;8.10;6.20;;;;;;;10.63;60.56;98850.14;109029;1280;22418;-60
2022/04/25 01:38:53;;;;;;;8.80;6.80;;;;;;;10.64;60.58;98850.73;108962;1279;22374;-61
2022/04/25 01:41:20;;;;;;;6.90;5.80;;;;;;;10.65;60.42;98845.83;108947;1279;23143;-61
2022/04/25 01:43:48;;;;;;;8.10;6.90;;;;;;;10.67;60.46;98848.01;109093;1280;22418;-61
2022/04/25 01:46:17;;;;;;;8.40;6.60;;;;;;;10.68;60.22;98841.73;109044;1280;23199;-60
2022/04/25 01:48:46;;;;;;;10.10;7.40;;;;;;;10.68;60.35;98846.52;108921;1281;22395;-61
2022/04/25 01:51:14;;;;;;;9.90;6.90;;;;;;;10.69;60.34;98845.15;108945;1280;22414;-60
2022/04/25 01:53:42;;;;;;;7.20;6.50;;;;;;;10.69;60.45;98847.82;108953;1280;23458;-61
2022/04/25 01:56:10;;;;;;;8.20;7.10;;;;;;;10.69;60.47;98855.02;108964;1279;22438;-60
2022/04/25 01:58:38;;;;;;;7.90;6.80;;;;;;;10.68;60.35;98854.85;108942;1281;22424;-60
2022/04/25 02:01:07;;;;;;;7.70;7.00;;;;;;;10.66;60.49;98850.95;108932;1280;22441;-60
2022/04/25 02:03:35;;;;;;;7.30;6.20;;;;;;;10.62;60.68;98849.21;108916;1280;22287;-61
2022/04/25 02:06:03;;;;;;;7.60;6.60;;;;;;;10.59;60.69;98844.85;108951;1281;22292;-61
2022/04/25 02:08:33;;;;;;;10.30;7.00;;;;;;;10.57;60.57;98847.02;108969;1279;22438;-60
2022/04/25 02:11:19;;;;;;;7.50;6.70;;;;;;;10.56;60.78;98848.88;108969;1281;22453;-60
2022/04/25 02:13:54;;;;;;;8.40;7.10;;;;;;;10.53;60.85;98855.21;108837;1281;22531;-60
2022/04/25 02:16:26;;;;;;;7.40;6.30;;;;;;;10.50;61.00;98855.98;108951;1281;22466;-61
2022/04/25 02:18:56;;;;;;;9.80;6.80;;;;;;;10.48;60.93;98861.20;109005;1280;22403;-61
2022/04/25 02:21:30;;;;;;;8.60;6.70;;;;;;;10.46;61.13;98857.39;108944;1280;22413;-61
2022/04/25 02:24:00;;;;;;;8.50;7.30;;;;;;;10.44;61.04;98855.42;109036;1279;22406;-61
2022/04/25 02:26:29;;;;;;;7.80;6.70;;;;;;;10.43;61.16;98852.05;108988;1280;22443;-61
2022/04/25 02:28:56;;;;;;;8.30;6.90;;;;;;;10.40;61.24;98848.73;108975;1280;22429;-60
2022/04/25 02:31:26;;;;;;;8.80;7.90;;;;;;;10.38;61.20;98848.69;108964;1281;22421;-60
2022/04/25 02:33:56;;;;;;;7.80;6.80;;;;;;;10.36;61.38;98847.77;108937;1280;22464;-61
2022/04/25 02:36:24;;;;;;;9.20;6.80;;;;;;;10.33;61.46;98847.92;108931;1281;23787;-60
2022/04/25 02:38:52;;;;;;;8.50;7.00;;;;;;;10.30;61.42;98841.48;109006;1281;22451;-60
2022/04/25 02:41:22;;;;;;;9.00;6.80;;;;;;;10.27;61.44;98837.02;104968;1281;24873;-60
2022/04/25 02:43:50;;;;;;;7.90;6.90;;;;;;;10.26;61.36;98829.51;104776;1281;24018;-59
2022/04/25 02:46:19;;;;;;;8.40;7.40;;;;;;;10.27;61.47;98829.61;108899;1279;23554;-60
2022/04/25 02:48:48;;;;;;;9.90;7.40;;;;;;;10.26;61.36;98822.86;108962;1280;22391;-60
2022/04/25 02:51:17;;;;;;;9.20;7.80;;;;;;;10.26;61.44;98830.05;108918;1281;22898;-60
2022/04/25 02:53:45;;;;;;;7.40;6.40;;;;;;;10.26;61.45;98831.57;108963;1281;22473;-60
2022/04/25 02:56:16;;;;;;;8.10;7.10;;;;;;;10.24;61.61;98832.77;108952;1281;22525;-60
2022/04/25 02:58:44;;;;;;;9.20;7.20;;;;;;;10.23;61.47;98833.28;108939;1280;22424;-61
2022/04/25 03:01:12;;;;;;;9.30;7.10;;;;;;;10.23;61.59;98839.17;108913;1281;23175;-60
2022/04/25 03:03:43;;;;;;;7.90;7.10;;;;;;;10.23;61.63;98836.02;108923;1281;22490;-61
2022/04/25 03:06:13;;;;;;;7.70;6.60;;;;;;;10.21;61.60;98834.64;108891;1281;22493;-60
2022/04/25 03:08:42;;;;;;;8.10;6.90;;;;;;;10.21;61.71;98829.31;108936;1281;23358;-61
2022/04/25 03:11:10;;;;;;;8.10;6.80;;;;;;;10.21;61.43;98824.47;108909;1281;22389;-61
2022/04/25 03:13:43;;;;;;;7.60;6.60;;;;;;;10.21;61.49;98818.48;108907;1281;22388;-61
2022/04/25 03:16:11;;;;;;;9.80;6.20;;;;;;;10.22;61.47;98816.84;108917;1281;22424;-60
2022/04/25 03:18:39;;;;;;;8.50;6.50;;;;;;;10.24;61.32;98803.48;108890;1280;22475;-60
2022/04/25 03:21:10;;;;;;;8.30;6.60;;;;;;;10.26;61.15;98798.58;108900;1281;22442;-60
2022/04/25 03:23:38;;;;;;;7.20;6.00;;;;;;;10.27;61.32;98797.43;108975;1280;22396;-60
2022/04/25 03:26:08;;;;;;;6.70;5.90;;;;;;;10.29;61.08;98798.70;108965;1281;22419;-60
2022/04/25 03:28:36;;;;;;;7.00;6.00;;;;;;;10.32;60.88;98803.16;108974;1280;22442;-60
2022/04/25 03:31:08;;;;;;;7.00;6.00;;;;;;;10.34;60.83;98797.23;108946;1281;22424;-60
2022/04/25 03:33:39;;;;;;;7.70;5.90;;;;;;;10.37;60.75;98794.50;108945;1281;23244;-60
2022/04/25 03:36:07;;;;;;;7.70;5.90;;;;;;;10.41;60.35;98791.38;108663;1283;23136;-60
2022/04/25 03:38:35;;;;;;;7.50;5.90;;;;;;;10.46;60.18;98781.08;108951;1281;22504;-59
2022/04/25 03:41:04;;;;;;;8.10;6.00;;;;;;;10.52;59.86;98775.95;108968;1280;23076;-60
2022/04/25 03:43:32;;;;;;;7.00;5.90;;;;;;;10.58;60.04;98775.88;108960;1280;22315;-60
2022/04/25 03:46:04;;;;;;;6.30;5.40;;;;;;;10.62;59.98;98771.80;107305;1284;24339;-58
2022/04/25 03:48:34;;;;;;;6.60;4.70;;;;;;;10.68;59.99;98775.59;104698;1281;22577;-58
2022/04/25 03:51:02;;;;;;;8.00;4.80;;;;;;;10.73;59.91;98779.38;108806;1281;22994;-58
2022/04/25 03:53:31;;;;;;;6.90;5.40;;;;;;;10.79;59.88;98779.98;108954;1281;23146;-58
2022/04/25 03:58:46;;;;;;;6.70;5.40;;;;;;;10.90;59.92;98785.98;108958;1281;22599;-58
2022/04/25 04:01:14;;;;;;;7.70;5.40;;;;;;;10.97;60.18;98790.95;108934;1281;23617;-58
2022/04/25 04:03:45;;;;;;;6.20;5.20;;;;;;;11.04;60.21;98791.42;108762;1282;22454;-58
2022/04/25 04:06:13;;;;;;;6.60;5.10;;;;;;;11.11;59.94;98794.45;108892;1280;22240;-58
2022/04/25 04:08:43;;;;;;;7.70;5.60;;;;;;;11.18;60.09;98786.19;108969;1280;22218;-58
2022/04/25 04:11:11;;;;;;;8.30;6.10;;;;;;;11.26;59.57;98786.14;108964;1280;22409;-58
2022/04/25 04:13:40;;;;;;;7.40;6.10;;;;;;;11.34;59.57;98794.30;109373;1276;22427;-58
2022/04/25 04:16:18;;;;;;;8.20;5.50;;;;;;;11.42;59.75;98799.42;109415;1276;22411;-64
2022/04/25 04:18:46;;;;;;;7.30;5.80;;;;;;;11.49;59.77;98787.73;109391;1276;22471;-63
2022/04/25 04:21:14;;;;;;;6.30;5.40;;;;;;;11.55;59.55;98772.17;109346;1276;22496;-62
2022/04/25 04:23:42;;;;;;;5.70;5.00;;;;;;;11.61;59.24;98771.48;109318;1277;22433;-62
2022/04/25 04:26:13;;;;;;;8.10;6.20;;;;;;;11.66;58.96;98773.76;109335;1276;22566;-63
2022/04/25 04:28:41;;;;;;;7.60;5.60;;;;;;;11.69;58.89;98768.59;109415;1276;22397;-62
2022/04/25 04:31:09;;;;;;;7.60;5.50;;;;;;;11.73;58.76;98762.35;109390;1276;22267;-62
2022/04/25 04:33:40;;;;;;;7.70;5.50;;;;;;;11.74;58.32;98761.03;109391;1276;22466;-62
2022/04/25 04:36:19;;;;;;;8.30;6.00;;;;;;;11.74;58.39;98759.17;109354;1276;22952;-63
2022/04/25 04:38:47;;;;;;;8.50;5.50;;;;;;;11.75;58.66;98762.67;109388;1276;22526;-62
2022/04/25 04:41:15;;;;;;;6.40;5.40;;;;;;;11.78;58.81;98757.88;109349;1276;22315;-62
2022/04/25 04:43:47;;;;;;;7.10;5.30;;;;;;;11.80;58.55;98763.70;109423;1276;22434;-62
2022/04/25 04:46:15;;;;;;;6.30;4.90;;;;;;;11.86;58.75;98772.38;109366;1276;22461;-63
2022/04/25 04:48:47;;;;;;;7.50;5.60;;;;;;;11.90;58.44;98770.82;109378;1276;22429;-62
2022/04/25 04:51:15;;;;;;;7.60;4.90;;;;;;;11.96;58.62;98764.73;109368;1276;22432;-62
2022/04/25 04:53:43;;;;;;;5.80;5.00;;;;;;;12.02;58.60;98759.36;109383;1276;22455;-62
2022/04/25 04:56:11;;;;;;;7.70;5.60;;;;;;;12.08;58.77;98757.46;109398;1276;22428;-58
2022/04/25 04:58:40;;;;;;;7.10;4.80;;;;;;;12.13;58.70;98754.96;109369;1276;22419;-58
2022/04/25 05:01:24;;;;;;;6.10;5.00;;;;;;;12.19;59.19;98750.15;109413;1276;22396;-58
2022/04/25 05:03:58;;;;;;;6.10;5.40;;;;;;;12.26;59.22;98751.45;109402;1276;22413;-58
2022/04/25 05:06:27;;;;;;;6.50;5.40;;;;;;;12.35;59.29;98750.27;109353;1276;22394;-58
2022/04/25 05:08:57;;;;;;;8.30;5.10;;;;;;;12.45;59.48;98749.24;109364;1276;22530;-58
2022/04/25 05:11:29;;;;;;;8.60;5.20;;;;;;;12.53;59.39;98747.91;109306;1276;23009;-58
2022/04/25 05:14:00;;;;;;;9.40;5.10;;;;;;;12.60;59.28;98746.30;109371;1276;22360;-58
2022/04/25 05:16:29;;;;;;;9.30;5.20;;;;;;;12.65;59.37;98742.04;109391;1276;22425;-58
2022/04/25 05:18:58;;;;;;;7.70;4.70;;;;;;;12.67;59.09;98745.19;109432;1276;22353;-58
2022/04/25 05:21:28;;;;;;;7.90;5.80;;;;;;;12.68;59.23;98744.57;109394;1276;22547;-58
2022/04/25 05:23:56;;;;;;;9.90;6.00;;;;;;;12.69;59.50;98742.49;109383;1276;23210;-58
2022/04/25 05:26:24;;;;;;;7.30;5.10;;;;;;;12.72;59.25;98748.17;109372;1276;22419;-58
2022/04/25 05:28:57;;;;;;;8.10;6.20;;;;;;;12.78;59.51;98752.27;109371;1276;22425;-58
2022/04/25 05:31:26;;;;;;;10.00;5.90;;;;;;;12.83;59.65;98751.95;109360;1276;22450;-58
2022/04/25 05:33:54;;;;;;;11.80;5.40;;;;;;;12.87;59.73;98745.54;109358;1276;23329;-57
2022/04/25 05:36:22;;;;;;;7.10;5.00;;;;;;;12.93;59.55;98746.80;109334;1276;22545;-58
2022/04/25 05:38:51;;;;;;;8.80;5.20;;;;;;;13.00;59.77;98741.16;109380;1276;23505;-58
2022/04/25 05:41:19;;;;;;;8.40;5.60;;;;;;;13.10;59.65;98742.74;109387;1276;22522;-58
2022/04/25 05:43:49;;;;;;;7.80;5.10;;;;;;;13.24;59.94;98734.01;109403;1276;22389;-58
2022/04/25 05:46:19;;;;;;;8.30;5.20;;;;;;;13.36;59.47;98721.36;109339;1276;22247;-58
2022/04/25 05:54:22;;;;;;;8.30;6.00;;;;;;;13.74;59.06;98709.83;109370;1276;22430;-58
2022/04/25 05:56:52;;;;;;;6.90;5.70;;;;;;;13.84;59.25;98704.80;106354;1276;22583;-57
2022/04/25 05:59:21;;;;;;;10.10;6.10;;;;;;;13.91;59.02;98701.39;109319;1276;23597;-58
2022/04/25 06:01:49;;;;;;;11.40;6.60;;;;;;;13.96;58.95;98698.85;109374;1276;22411;-58
2022/04/25 06:04:21;;;;;;;10.00;6.20;;;;;;;14.02;59.17;98692.80;109367;1276;22555;-58
2022/04/25 06:06:56;;;;;;;7.60;5.60;;;;;;;14.12;59.18;98692.87;109339;1276;22507;-58
2022/04/25 06:09:26;;;;;;;7.20;5.50;;;;;;;14.19;59.35;98695.85;109373;1276;22448;-58
2022/04/25 06:11:56;;;;;;;6.80;5.40;;;;;;;14.25;59.97;98696.02;109320;1276;23231;-58
2022/04/25 06:14:31;;;;;;;9.60;5.10;;;;;;;14.33;60.49;98692.85;109354;1276;22995;-59
2022/04/25 06:17:01;;;;;;;8.80;5.20;;;;;;;14.43;60.43;98690.38;105650;1276;22713;-57
2022/04/25 06:19:32;;;;;;;7.50;5.50;;;;;;;14.56;60.48;98689.27;109333;1276;22446;-58
2022/04/25 06:22:02;;;;;;;8.40;5.60;;;;;;;14.66;60.67;98687.14;109329;1276;23130;-58
2022/04/25 06:24:31;;;;;;;8.50;5.20;;;;;;;14.76;60.81;98687.83;109372;1276;23321;-57
2022/04/25 06:26:59;;;;;;;6.30;5.70;;;;;;;14.90;60.90;98688.31;106111;1276;24139;-58
2022/04/25 06:29:27;;;;;;;6.60;5.40;;;;;;;15.01;60.98;98683.71;109253;1276;23786;-58
2022/04/25 06:31:58;;;;;;;7.80;5.60;;;;;;;15.11;60.80;98679.50;109360;1276;23261;-57
2022/04/25 06:34:26;;;;;;;9.40;5.90;;;;;;;15.19;60.68;98678.38;109301;1276;22442;-58
2022/04/25 06:36:55;;;;;;;6.60;5.90;;;;;;;15.30;60.84;98670.40;109339;1276;22420;-57
2022/04/25 06:39:25;;;;;;;8.20;6.40;;;;;;;15.40;60.56;98667.97;109366;1276;23185;-58
2022/04/25 06:41:54;;;;;;;8.30;6.30;;;;;;;15.51;60.66;98659.66;109372;1276;22560;-57
2022/04/25 06:44:22;;;;;;;8.30;5.90;;;;;;;15.61;60.64;98662.02;109262;1276;22424;-58
2022/04/25 06:46:54;;;;;;;8.90;6.50;;;;;;;15.71;60.83;98652.32;109384;1276;22454;-58
2022/04/25 06:49:25;;;;;;;7.70;5.80;;;;;;;15.81;60.86;98653.66;109360;1275;22411;-58
2022/04/25 06:51:58;;;;;;;14.60;8.40;;;;;;;15.91;60.75;98649.81;109325;1276;23043;-58
2022/04/25 06:54:31;;;;;;;13.40;8.60;;;;;;;16.02;60.62;98652.85;109385;1275;22494;-58
2022/04/25 06:56:59;;;;;;;10.30;6.30;;;;;;;16.09;60.56;98647.39;106142;1276;24238;-58
2022/04/25 06:59:27;;;;;;;10.30;6.90;;;;;;;16.12;60.63;98642.57;105029;1276;24247;-58
2022/04/25 07:02:00;;;;;;;11.50;6.40;;;;;;;16.18;60.76;98638.39;105127;1276;23962;-58
2022/04/25 07:04:29;;;;;;;12.60;7.50;;;;;;;16.26;60.90;98638.69;109310;1276;23365;-58
2022/04/25 07:06:57;;;;;;;9.50;6.10;;;;;;;16.33;60.62;98639.84;109301;1276;22451;-58
2022/04/25 07:09:26;;;;;;;8.20;5.90;;;;;;;16.41;60.63;98635.06;109358;1277;22378;-58
2022/04/25 07:11:56;;;;;;;9.40;6.10;;;;;;;16.53;60.50;98638.95;109322;1276;23260;-58
2022/04/25 07:14:26;;;;;;;9.00;5.80;;;;;;;16.59;60.51;98632.17;109372;1276;22381;-57
2022/04/25 07:16:59;;;;;;;9.20;5.90;;;;;;;16.63;59.94;98634.14;109359;1276;22363;-58
2022/04/25 07:19:28;;;;;;;13.20;5.90;;;;;;;16.60;59.93;98632.46;109364;1276;22424;-58
2022/04/25 07:30:19;;;;;;;11.80;6.00;;;;;;;16.77;59.98;98618.91;109370;1276;22496;-58
2022/04/25 07:32:48;;;;;;;11.00;5.80;;;;;;;16.83;59.97;98616.51;109373;1276;22503;-59
2022/04/25 07:35:17;;;;;;;10.20;6.20;;;;;;;16.89;60.04;98614.45;109111;1276;22567;-58
2022/04/25 07:37:47;;;;;;;13.00;7.90;;;;;;;16.95;59.74;98612.16;109321;1276;22515;-58
2022/04/25 07:40:16;;;;;;;11.00;6.50;;;;;;;17.02;59.29;98613.43;109366;1276;22221;-59
2022/04/25 07:42:45;;;;;;;11.60;7.10;;;;;;;17.07;59.33;98610.96;109359;1276;22406;-59
2022/04/25 07:45:13;;;;;;;10.60;6.20;;;;;;;17.11;59.49;98604.95;109393;1276;23236;-59
2022/04/25 07:47:43;;;;;;;11.20;6.20;;;;;;;17.13;59.28;98603.14;109387;1276;23173;-58
2022/04/25 07:50:11;;;;;;;11.60;5.60;;;;;;;17.14;58.94;98599.13;109370;1275;22510;-58
2022/04/25 07:52:42;;;;;;;8.20;4.90;;;;;;;17.16;59.03;98598.80;109351;1276;22422;-59
2022/04/25 07:55:10;;;;;;;6.70;4.90;;;;;;;17.20;58.92;98599.60;109365;1276;22562;-58
2022/04/25 07:57:38;;;;;;;6.80;4.90;;;;;;;17.24;58.93;98596.43;109376;1276;22422;-59
2022/04/25 08:00:10;;;;;;;13.80;5.40;;;;;;;17.29;58.70;98604.35;109373;1276;22423;-59
2022/04/25 08:02:42;;;;;;;7.50;5.40;;;;;;;17.31;58.78;98612.40;109372;1276;22341;-59
2022/04/25 08:05:10;;;;;;;5.80;4.80;;;;;;;17.34;58.96;98625.02;109337;1276;22481;-58
2022/04/25 08:07:38;;;;;;;9.30;5.90;;;;;;;17.40;59.19;98632.42;109275;1276;23248;-59
2022/04/25 08:10:13;;;;;;;8.70;5.40;;;;;;;17.42;59.04;98631.04;109290;1277;22445;-59
2022/04/25 08:18:18;;;;;;;9.50;5.50;;;;;;;17.53;59.35;98621.23;109379;1275;23059;-58
2022/04/25 08:20:50;;;;;;;7.40;5.30;;;;;;;17.57;59.20;98629.31;109369;1276;22421;-58
2022/04/25 08:23:18;;;;;;;6.70;5.10;;;;;;;17.62;59.30;98627.92;109333;1276;22550;-58
2022/04/25 08:25:47;;;;;;;9.20;6.00;;;;;;;17.67;59.14;98619.62;109361;1276;22430;-58
2022/04/25 08:28:15;;;;;;;9.50;4.70;;;;;;;17.75;59.15;98618.54;109340;1276;22621;-58
2022/04/25 08:30:44;;;;;;;7.10;4.70;;;;;;;17.82;58.73;98624.36;109397;1276;22422;-58
2022/04/25 08:33:13;;;;;;;8.50;4.80;;;;;;;17.89;58.33;98622.20;109362;1276;22483;-58
2022/04/25 08:35:44;;;;;;;8.00;5.20;;;;;;;17.92;58.17;98624.95;109376;1277;22426;-58
2022/04/25 08:38:12;;;;;;;8.90;5.10;;;;;;;17.93;58.03;98619.14;109345;1276;22596;-57
2022/04/25 08:40:40;;;;;;;6.70;4.60;;;;;;;17.95;58.30;98618.56;109352;1276;22449;-58
2022/04/25 08:43:09;;;;;;;5.70;4.20;;;;;;;18.01;58.31;98617.70;109338;1274;22477;-58
2022/04/25 08:45:37;;;;;;;6.90;4.30;;;;;;;18.08;58.50;98610.83;109164;1277;22429;-58
2022/04/25 08:48:08;;;;;;;7.60;4.40;;;;;;;18.17;58.81;98612.52;109322;1276;23106;-58
2022/04/25 08:50:47;;;;;;;5.20;4.20;;;;;;;18.25;58.74;98604.54;109224;1275;22455;-59
2022/04/25 08:53:15;;;;;;;5.00;4.00;;;;;;;18.35;58.59;98608.03;109321;1276;22533;-58
2022/04/25 08:55:45;;;;;;;7.50;4.30;;;;;;;18.47;58.50;98606.06;109194;1276;22640;-57
2022/04/25 08:58:13;;;;;;;8.30;4.50;;;;;;;18.58;58.48;98604.58;109136;1276;22511;-58
2022/04/25 09:00:41;;;;;;;6.90;4.40;;;;;;;18.70;58.33;98606.17;109351;1277;22506;-57
2022/04/25 09:03:20;;;;;;;10.80;4.40;;;;;;;18.84;58.19;98612.45;109362;1276;22528;-58
2022/04/25 09:05:49;;;;;;;8.90;6.30;;;;;;;18.93;57.91;98622.21;109362;1276;22554;-58
2022/04/25 09:08:18;;;;;;;8.60;5.40;;;;;;;19.00;57.28;98618.29;109304;1276;22489;-58
2022/04/25 09:10:48;;;;;;;6.60;5.10;;;;;;;19.01;57.05;98622.22;109416;1275;22466;-58
2022/04/25 09:13:20;;;;;;;9.50;6.50;;;;;;;19.01;56.93;98629.00;109265;1276;22581;-58
2022/04/25 09:15:48;;;;;;;9.20;5.50;;;;;;;18.99;57.02;98632.55;108981;1277;22437;-58
2022/04/25 09:18:17;;;;;;;9.60;6.90;;;;;;;18.96;57.12;98633.70;109219;1276;22507;-58
2022/04/25 09:20:45;;;;;;;14.10;5.60;;;;;;;18.95;56.92;98639.78;109334;1275;23491;-58
2022/04/25 09:23:21;;;;;;;22.10;8.00;;;;;;;18.91;56.70;98644.27;109228;1276;22604;-58
2022/04/25 09:26:15;;;;;;;9.90;8.40;;;;;;;18.87;56.58;98642.86;109343;1273;23239;-58
2022/04/25 09:28:49;;;;;;;15.40;10.50;;;;;;;18.81;57.18;98643.57;109322;1276;22536;-58
2022/04/25 09:31:22;;;;;;;13.60;7.00;;;;;;;18.78;57.38;98643.99;109348;1276;22500;-58
2022/04/25 09:33:51;;;;;;;9.10;6.30;;;;;;;18.77;57.28;98643.26;109367;1276;22239;-58
2022/04/25 09:36:21;;;;;;;7.90;6.10;;;;;;;18.76;57.22;98642.56;109373;1276;22430;-58
2022/04/25 09:38:49;;;;;;;10.10;8.00;;;;;;;18.71;57.15;98651.13;109305;1276;22418;-58
2022/04/25 09:41:17;;;;;;;12.30;8.70;;;;;;;18.62;57.14;98646.98;109390;1276;22411;-58
2022/04/25 09:43:49;;;;;;;10.50;6.90;;;;;;;18.58;57.54;98644.36;109363;1276;22513;-58
2022/04/25 09:46:23;;;;;;;9.90;6.90;;;;;;;18.56;58.00;98644.45;109270;1277;22404;-58
2022/04/25 09:49:02;;;;;;;10.00;6.70;;;;;;;18.56;58.09;98645.95;109347;1277;22508;-58
2022/04/25 09:51:30;;;;;;;8.00;6.00;;;;;;;18.57;57.91;98646.10;109377;1276;22446;-58
2022/04/25 09:54:03;;;;;;;10.40;6.20;;;;;;;18.54;58.03;98642.15;109206;1277;23523;-58
2022/04/25 09:56:34;;;;;;;9.10;5.60;;;;;;;18.52;58.04;98637.48;109289;1276;22414;-58
2022/04/25 09:59:08;;;;;;;9.50;5.00;;;;;;;18.48;57.81;98638.31;109356;1276;22239;-58
2022/04/25 10:01:38;;;;;;;8.10;5.40;;;;;;;18.39;57.68;98641.99;109307;1276;22392;-58
2022/04/25 10:04:33;;;;;;;8.70;5.20;;;;;;;18.30;57.66;98648.78;109225;1277;23141;-57
2022/04/25 10:07:06;;;;;;;7.60;5.70;;;;;;;18.20;57.95;98646.38;109375;1276;22424;-57
2022/04/25 10:09:39;;;;;;;8.40;5.20;;;;;;;18.13;58.15;98646.48;109364;1275;22463;-58
2022/04/25 10:12:11;;;;;;;9.00;5.60;;;;;;;18.07;58.26;98646.28;109237;1276;23195;-58
2022/04/25 10:14:40;;;;;;;9.20;5.40;;;;;;;18.01;58.25;98642.20;109376;1276;22424;-58
2022/04/25 10:17:11;;;;;;;7.30;5.40;;;;;;;17.94;58.58;98646.70;109162;1279;22444;-58
2022/04/25 10:19:40;;;;;;;12.40;4.90;;;;;;;17.89;58.71;98653.45;109395;1275;23461;-58
2022/04/25 10:22:09;;;;;;;9.60;5.50;;;;;;;17.82;59.01;98646.64;109378;1276;23034;-58
2022/04/25 10:24:37;;;;;;;8.00;5.90;;;;;;;17.77;59.25;98642.10;109313;1276;22423;-58
2022/04/25 10:27:08;;;;;;;8.40;5.50;;;;;;;17.78;59.57;98646.21;109151;1276;23475;-58
2022/04/25 10:29:37;;;;;;;9.30;5.90;;;;;;;17.80;59.88;98647.80;109320;1276;22397;-58
2022/04/25 10:32:08;;;;;;;9.60;5.80;;;;;;;17.83;59.60;98646.27;109370;1276;23224;-58
2022/04/25 10:34:46;;;;;;;8.80;5.60;;;;;;;17.84;59.68;98643.52;109266;1276;23753;-58
2022/04/25 10:37:28;;;;;;;8.40;5.10;;;;;;;17.88;59.97;98644.55;109367;1276;22458;-58
2022/04/25 10:39:56;;;;;;;12.30;5.60;;;;;;;17.92;60.25;98643.46;109331;1276;22434;-57
2022/04/25 10:45:11;;;;;;;;;;;;;;;18.08;60.20;98646.95;109364;1276;22494;-58
2022/04/25 10:47:58;;;;;;;9.20;5.60;;;;;;;18.18;60.13;98649.05;109383;1276;22438;-58
2022/04/25 10:50:27;;;;;;;9.00;5.70;;;;;;;18.30;59.87;98643.75;109392;1276;22430;-58
2022/04/25 10:52:55;;;;;;;8.00;5.90;;;;;;;18.39;59.29;98643.71;109398;1276;22463;-58
2022/04/25 10:55:23;;;;;;;13.60;5.80;;;;;;;18.48;59.34;98648.02;109363;1276;22436;-58
2022/04/25 10:58:03;;;;;;;8.40;5.40;;;;;;;18.56;58.88;98650.42;109411;1276;22415;-58
2022/04/25 11:00:39;;;;;;;12.10;5.80;;;;;;;18.63;58.30;98648.98;109405;1274;22544;-58
2022/04/25 11:03:12;;;;;;;11.70;6.00;;;;;;;18.69;58.40;98648.87;109388;1276;22436;-58
2022/04/25 11:05:55;;;;;;;8.80;4.80;;;;;;;18.77;58.33;98651.29;109373;1275;22422;-58
2022/04/25 11:08:36;;;;;;;11.30;5.50;;;;;;;18.86;57.86;98648.36;109374;1276;22464;-58
2022/04/25 11:11:14;;;;;;;9.00;5.50;;;;;;;18.95;57.90;98650.27;109366;1276;22402;-58
2022/04/25 11:13:49;;;;;;;10.50;4.90;;;;;;;19.01;57.67;98647.23;109362;1276;22512;-58
2022/04/25 11:16:23;;;;;;;12.40;5.60;;;;;;;19.06;57.36;98652.63;109303;1276;23069;-62
2022/04/25 11:19:11;;;;;;;10.90;4.90;;;;;;;19.11;56.62;98647.05;109183;1277;265685;-62
2022/04/25 11:22:40;;;;;;;10.40;5.00;;;;;;;19.17;56.38;98651.76;102632;1303;545316;-63
2022/04/25 11:25:26;;;;;;;10.40;5.30;;;;;;;19.15;55.95;98655.73;104579;1284;22705;-61
2022/04/25 11:28:11;;;;;;;7.40;5.00;;;;;;;19.14;55.98;98656.55;104558;1284;24059;-62
2022/04/25 11:30:40;;;;;;;9.40;5.50;;;;;;;19.12;56.07;98658.64;104615;1284;25187;-62
2022/04/25 11:33:09;;;;;;;8.90;5.30;;;;;;;19.08;56.36;98660.09;104608;1284;24123;-62
2022/04/25 11:35:41;;;;;;;9.30;5.20;;;;;;;19.03;56.14;98661.02;104689;1278;290844;-62
2022/04/25 11:38:09;;;;;;;10.50;5.80;;;;;;;18.97;56.01;98664.23;109536;1274;22675;-62
2022/04/25 11:40:39;;;;;;;13.80;6.40;;;;;;;18.91;56.02;98664.48;109476;1274;22485;-62
2022/04/25 11:43:07;;;;;;;10.50;5.20;;;;;;;18.86;56.14;98668.07;109383;1275;23147;-62
2022/04/25 11:45:35;;;;;;;9.80;5.90;;;;;;;18.82;56.04;98668.99;109419;1277;22394;-58
2022/04/25 11:48:12;;;;;;;12.30;5.70;;;;;;;18.78;56.12;98665.20;109400;1274;23238;-58
2022/04/25 11:50:49;;;;;;;10.60;6.30;;;;;;;18.75;56.52;98663.59;109427;1276;22563;-58
2022/04/25 11:53:29;;;;;;;10.40;5.40;;;;;;;18.72;56.49;98655.45;109410;1276;22449;-58
2022/04/25 11:55:59;;;;;;;9.80;5.50;;;;;;;18.71;56.79;98647.69;109455;1276;22383;-58
2022/04/25 11:58:31;;;;;;;9.00;5.80;;;;;;;18.70;55.87;98643.86;109531;1276;22470;-58
2022/04/25 12:01:00;;;;;;;12.70;5.40;;;;;;;18.69;55.99;98643.19;109504;1275;23539;-58
2022/04/25 12:03:30;;;;;;;7.80;5.10;;;;;;;18.69;55.82;98640.36;109504;1276;22465;-58
2022/04/25 12:06:09;;;;;;;12.20;6.00;;;;;;;18.69;55.77;98639.42;109530;1276;22529;-58
2022/04/25 12:17:16;;;;;;;8.40;5.30;;;;;;;18.89;56.51;98641.29;109380;1277;22410;-58
2022/04/25 12:20:04;;;;;;;9.50;5.70;;;;;;;18.93;55.83;98640.18;109379;1277;23237;-58